Date,TemperatureHighF,TemperatureAvgF,TemperatureLowF,DewpointHighF,DewpointAvgF,DewpointLowF,HumidityHigh,HumidityAvg,HumidityLow,PressureMaxIn,PressureMinIn,WindSpeedMaxMPH,WindSpeedAvgMPH,GustSpeedMaxMPH,PrecipitationSumIn
2014-1-1,52.9,31.9,16.2,27.0,15.7,8.1,83,55,27,30.40,30.14,11,2,0,0.00
2014-1-2,52.6,27.3,11.0,24.8,11.9,4.2,85,57,23,30.53,30.33,5,1,0,0.00
2014-1-3,54.9,28.0,11.9,26.8,10.5,4.5,84,51,19,30.39,30.01,10,1,0,0.00
2014-1-4,53.0,31.6,16.4,26.6,11.5,0.2,68,44,20,30.08,29.72,17,4,0,0.00
2014-1-5,35.0,19.3,6.8,7.3,-0.5,-8.8,70,45,22,30.54,30.07,17,3,0,0.00
2014-1-6,37.6,20.0,2.7,9.5,-0.9,-9.2,70,42,21,30.70,30.53,11,3,0,0.00
2014-1-7,42.1,26.3,15.2,15.5,4.9,-2.9,59,41,26,30.58,30.20,16,3,0,0.00
2014-1-8,49.5,27.0,9.9,23.6,9.8,0.8,78,52,27,30.32,30.15,7,2,0,0.00
2014-1-9,49.6,31.1,13.7,23.6,14.5,5.7,82,54,27,30.22,29.94,13,2,0,0.00
2014-1-10,45.4,37.2,26.9,21.7,17.4,12.4,64,45,34,30.11,29.80,24,6,0,0.00
2014-1-11,55.6,36.0,22.7,29.3,17.3,10.9,69,48,27,30.28,30.02,12,3,0,0.00
2014-1-12,50.6,32.3,18.6,26.0,14.7,6.4,82,51,27,30.21,29.84,32,4,0,0.00
2014-1-13,45.8,28.7,14.3,19.9,9.7,1.7,67,47,28,30.43,30.21,17,2,0,0.00
2014-1-14,47.7,29.7,15.8,21.1,11.6,4.9,74,50,25,30.55,30.34,12,2,0,0.00
2014-1-15,54.6,28.8,10.3,26.6,11.0,2.0,80,51,22,30.57,30.30,9,1,0,0.00
2014-1-16,56.8,30.8,11.0,26.7,11.9,2.9,81,47,16,30.46,30.22,9,2,0,0.00
2014-1-17,54.9,28.1,12.1,25.7,8.8,1.1,73,46,19,30.45,30.25,9,2,0,0.00
2014-1-18,52.7,30.2,12.2,25.0,11.6,2.2,80,48,23,30.46,30.31,12,2,0,0.00
2014-1-19,57.5,29.7,10.9,29.4,12.5,2.8,84,52,22,30.49,30.21,16,1,0,0.00
2014-1-20,54.7,32.2,12.3,25.8,13.4,4.3,82,48,16,30.55,30.27,14,3,0,0.00
2014-1-21,57.9,30.6,11.9,28.4,11.6,2.4,77,47,18,30.61,30.33,8,1,0,0.00
2014-1-22,41.9,25.0,10.3,17.2,7.6,-0.4,77,52,30,30.37,30.09,9,1,0,0.00
2014-1-23,32.4,23.5,14.2,16.3,9.9,3.0,77,62,50,30.73,30.20,17,4,0,0.00
2014-1-24,49.6,24.8,6.0,22.6,9.1,-1.1,85,56,24,30.79,30.53,18,3,0,0.00
2014-1-25,56.6,32.0,16.5,26.7,11.4,3.2,65,43,17,30.60,30.15,14,3,0,0.00
2014-1-26,56.8,33.7,13.8,27.9,13.8,4.0,75,45,19,30.18,29.92,13,2,0,0.00
2014-1-27,47.5,33.3,20.1,23.1,15.8,7.0,79,52,32,30.09,29.88,22,6,0,0.00
2014-1-28,47.8,31.7,17.1,20.8,11.2,0.5,62,43,24,30.24,29.96,11,2,0,0.00
2014-1-29,55.2,30.1,9.4,26.8,9.6,-1.6,73,43,19,30.30,30.02,7,2,0,0.00
2014-1-30,59.0,42.7,23.4,34.2,22.4,7.8,62,44,28,30.03,29.61,13,3,0,0.00
2014-1-31,52.9,47.5,37.0,33.6,28.0,23.5,67,46,33,29.63,29.39,23,5,0,0.00
2014-2-1,44.0,36.8,23.4,23.8,18.0,10.0,66,48,29,29.97,29.55,15,2,0,0.00
2014-2-2,43.6,27.0,12.0,17.9,10.9,5.0,84,55,27,30.19,29.97,12,2,0,0.00
2014-2-3,42.9,33.2,24.3,24.7,17.2,9.4,83,56,38,30.08,29.75,11,1,0,0.00
2014-2-4,38.6,31.0,24.2,26.1,18.8,13.5,89,66,39,30.08,29.74,18,4,0,0.00
2014-2-5,30.7,24.2,17.8,15.9,13.4,6.8,77,70,56,30.26,30.08,20,4,0,0.00
2014-2-6,35.4,23.6,16.7,19.0,12.7,5.2,84,70,54,30.32,30.12,13,3,0,0.00
2014-2-7,44.9,32.3,22.2,24.9,20.4,16.1,86,67,38,30.13,30.01,17,2,0,0.00
2014-2-8,54.5,38.6,27.2,30.7,22.7,16.0,71,56,34,30.18,30.07,14,2,0,0.00
2014-2-9,62.4,42.8,26.0,37.3,26.5,16.7,77,55,29,30.14,29.86,12,2,0,0.00
2014-2-10,59.6,43.3,28.5,34.7,28.4,22.5,86,59,26,29.94,29.73,17,3,0,0.00
2014-2-11,51.4,40.1,28.8,28.5,23.3,12.2,80,53,28,30.09,29.88,18,3,0,0.00
2014-2-12,54.5,37.0,17.8,26.4,16.8,8.9,78,44,20,30.26,30.01,15,3,0,0.00
2014-2-13,63.6,43.5,23.3,36.5,22.8,11.2,69,42,24,30.16,29.87,16,3,0,0.00
2014-2-14,63.9,47.7,31.5,37.6,27.6,18.7,67,44,27,30.03,29.87,16,2,0,0.00
2014-2-15,69.2,46.2,29.1,39.9,25.7,13.7,75,43,16,30.07,29.93,15,2,0,0.00
2014-2-16,65.2,44.1,24.0,35.7,22.4,11.8,68,40,17,30.04,29.86,15,3,0,0.00
2014-2-17,63.7,45.8,26.4,32.0,20.5,8.8,59,30,12,30.18,29.92,12,3,0,0.00
2014-2-18,65.0,42.3,21.7,34.5,17.9,5.3,56,32,14,30.09,29.89,15,3,0,0.00
2014-2-19,62.2,45.8,29.7,33.1,21.7,11.7,54,33,19,29.96,29.43,20,4,0,0.00
2014-2-20,43.4,34.3,21.2,16.9,6.9,-2.7,35,24,16,30.18,29.63,22,5,0,0.00
2014-2-21,54.5,33.5,16.1,25.6,9.0,-3.4,47,32,19,30.23,30.00,13,3,0,0.00
2014-2-22,57.4,38.7,16.8,28.6,16.0,3.4,64,37,19,30.05,29.86,16,3,0,0.00
2014-2-23,62.8,40.6,20.0,31.8,17.2,6.2,64,35,13,30.11,29.94,13,2,0,0.00
2014-2-24,64.3,40.5,16.8,34.4,16.1,1.6,60,32,14,30.15,29.96,11,2,0,0.00
2014-2-25,64.5,42.6,18.7,34.6,18.4,3.3,58,33,16,30.10,29.83,16,2,0,0.00
2014-2-26,60.4,41.8,25.6,32.1,21.0,11.0,74,42,21,30.02,29.80,22,4,0,0.00
2014-2-27,59.0,40.4,22.4,34.7,23.0,8.5,84,52,31,29.93,29.55,16,3,0,0.16
2014-2-28,54.5,42.6,31.5,31.1,26.2,22.7,80,55,27,29.91,29.73,18,3,0,0.01
2014-3-1,51.4,38.7,29.6,37.1,30.7,22.3,93,78,44,29.93,29.79,14,2,0,0.46
2014-3-2,50.1,40.7,30.9,36.6,32.9,27.0,93,78,57,30.09,29.79,17,5,0,0.12
2014-3-3,55.5,38.7,27.5,34.1,28.4,24.5,94,72,34,30.18,30.00,9,1,0,0.00
2014-3-4,53.2,40.1,26.1,36.5,29.3,22.2,92,70,37,30.08,29.82,11,2,0,0.08
2014-3-5,59.0,44.0,32.3,36.6,30.7,24.5,94,63,26,30.13,29.89,14,2,0,0.01
2014-3-6,62.1,42.7,26.8,33.3,26.4,21.0,88,55,18,30.18,29.87,10,2,0,0.00
2014-3-7,56.2,41.7,28.9,35.3,26.8,20.4,79,59,32,29.93,29.73,14,2,0,0.01
2014-3-8,49.8,40.3,28.1,29.4,23.5,20.5,80,53,32,30.35,29.92,14,5,0,0.00
2014-3-9,66.0,40.7,19.7,36.8,23.2,13.6,87,51,18,30.43,30.12,9,2,0,0.00
2014-3-10,71.5,46.0,23.2,40.5,24.2,12.6,79,39,10,30.19,29.79,16,2,0,0.00
2014-3-11,55.6,42.7,28.9,27.4,18.4,11.8,57,33,14,30.07,29.72,16,4,0,0.00
2014-3-12,52.0,37.7,23.3,24.2,15.2,8.1,60,38,18,30.32,30.07,10,3,0,0.00
2014-3-13,60.5,42.3,18.4,32.8,21.2,7.5,72,42,22,30.27,29.87,14,4,0,0.00
2014-3-14,54.7,43.2,30.6,34.6,28.7,21.7,81,60,39,29.99,29.88,20,3,0,0.00
2014-3-15,52.6,38.5,27.3,32.8,25.3,16.1,92,63,27,30.21,29.86,22,4,0,0.00
2014-3-16,60.3,42.1,21.2,31.1,18.7,8.2,67,35,19,30.33,30.05,12,3,0,0.00
2014-3-17,67.4,46.5,24.2,36.5,22.9,11.1,64,34,12,30.07,29.37,21,4,0,0.00
2014-3-18,55.9,43.5,29.5,25.7,15.4,5.3,33,22,16,29.93,29.38,17,5,0,0.00
2014-3-19,55.7,38.1,23.9,25.1,13.8,2.0,52,32,14,30.24,29.93,18,3,0,0.00
2014-3-20,64.3,42.0,18.3,33.2,15.4,-1.1,48,26,10,30.27,29.90,16,3,0,0.00
2014-3-21,68.1,48.6,27.0,37.1,21.3,5.8,43,24,13,29.94,29.71,14,2,0,0.00
2014-3-22,61.3,47.8,37.3,31.8,23.5,16.8,45,32,18,29.97,29.75,25,6,0,0.00
2014-3-23,57.8,45.9,33.3,32.2,26.0,15.5,86,45,21,30.14,29.92,15,4,0,0.01
2014-3-24,66.9,46.2,27.3,35.0,20.8,9.7,52,29,11,30.15,29.93,17,3,0,0.00
2014-3-25,66.6,47.5,24.5,36.7,22.3,6.8,52,30,15,30.16,29.77,22,4,0,0.00
2014-3-26,59.5,51.2,40.1,36.0,32.3,28.3,73,47,22,29.78,29.32,21,5,0,0.00
2014-3-27,56.1,46.1,38.0,30.2,25.9,20.0,72,44,24,29.77,29.52,21,6,0,0.01
2014-3-28,60.4,53.4,38.3,31.2,25.9,14.5,38,24,17,30.15,29.92,16,4,0,0.00
2014-3-29,65.5,44.0,22.0,37.1,20.4,5.2,56,35,19,30.27,29.96,20,4,0,0.00
2014-3-30,65.9,59.7,41.6,36.0,30.8,20.0,40,20,14,29.90,29.58,26,8,0,0.00
2014-3-31,61.8,46.3,31.0,30.6,19.7,10.4,45,26,13,29.84,29.75,17,4,0,0.00
2014-4-1,70.2,50.4,30.5,38.5,23.6,9.3,45,25,12,29.86,29.56,30,6,0,0.00
2014-4-2,64.1,54.3,38.4,34.2,25.8,13.8,32,21,16,29.63,29.34,24,8,0,0.00
2014-4-3,48.1,38.4,28.6,30.9,23.5,15.9,92,59,25,30.11,29.53,17,4,0,0.05
2014-4-4,57.3,38.4,19.7,29.0,22.2,15.4,91,55,15,30.25,29.91,18,3,0,0.03
2014-4-5,57.5,40.2,28.6,33.6,24.6,13.0,92,57,25,29.92,29.66,18,2,0,0.10
2014-4-6,51.4,39.9,33.8,36.6,31.8,27.2,93,77,39,29.94,29.78,14,2,0,0.08
2014-4-7,61.1,44.7,29.0,32.4,27.7,19.3,96,53,16,30.18,29.94,13,3,0,0.01
2014-4-8,70.2,49.2,26.8,40.6,26.9,15.5,70,38,17,30.27,30.02,13,2,0,0.00
2014-4-9,77.2,53.9,28.6,45.6,29.9,16.9,70,33,12,30.15,29.83,15,3,0,0.00
2014-4-10,76.0,55.0,32.1,44.0,28.3,14.5,54,26,10,29.94,29.75,16,3,0,0.00
2014-4-11,75.2,55.3,29.8,42.9,27.2,9.6,45,22,9,29.99,29.71,16,3,0,0.00
2014-4-12,71.7,53.2,34.4,42.7,28.0,11.8,46,30,19,29.79,29.49,17,3,0,0.00
2014-4-13,66.1,48.7,35.3,38.7,31.2,25.0,81,51,22,29.73,29.40,19,2,0,0.02
2014-4-14,50.6,36.6,25.4,28.7,22.2,17.7,84,60,30,30.22,29.72,19,4,0,0.03
2014-4-15,64.7,43.7,21.9,34.5,22.0,12.7,81,40,13,30.25,29.81,20,3,0,0.00
2014-4-16,69.0,49.7,26.8,37.9,24.7,9.1,54,31,13,29.85,29.61,17,3,0,0.00
2014-4-17,65.5,52.7,35.3,39.4,33.1,26.4,77,46,26,29.97,29.82,19,5,0,0.00
2014-4-18,73.6,55.6,32.3,44.9,32.7,19.5,66,37,17,30.03,29.75,22,4,0,0.00
2014-4-19,68.7,56.8,44.6,43.3,39.3,32.8,72,51,29,29.88,29.69,23,3,0,0.00
2014-4-20,70.1,57.3,44.5,45.6,40.5,36.9,80,53,30,29.91,29.78,14,2,0,0.00
2014-4-21,74.8,59.2,38.0,46.6,39.9,30.6,82,46,19,30.04,29.82,19,4,0,0.00
2014-4-22,76.1,60.9,40.4,47.3,39.8,29.7,72,41,18,29.93,29.54,31,6,0,0.00
2014-4-23,69.3,61.1,50.2,40.9,34.9,22.5,42,27,19,29.62,29.36,22,5,0,0.00
2014-4-24,66.9,51.0,30.5,35.1,23.1,9.4,43,22,9,29.92,29.62,17,3,0,0.00
2014-4-25,73.3,52.6,28.0,42.3,24.6,4.9,40,22,13,29.94,29.60,22,4,0,0.00
2014-4-26,66.8,50.6,33.4,37.0,28.7,17.5,91,39,17,29.61,29.22,27,6,0,0.05
2014-4-27,51.9,43.2,33.4,31.4,25.8,20.2,84,52,29,29.72,29.42,26,5,0,0.10
2014-4-28,56.2,46.1,29.7,28.6,21.6,15.0,68,32,14,29.94,29.68,24,5,0,0.00
2014-4-29,57.9,42.4,24.1,28.4,18.5,7.6,59,34,18,30.12,29.94,14,3,0,0.00
2014-4-30,58.7,45.8,27.2,29.9,22.1,11.0,55,34,20,30.19,30.00,13,2,0,0.00
2014-5-1,58.7,47.9,38.7,32.1,26.1,18.7,57,40,22,30.15,29.93,21,4,0,0.00
2014-5-2,72.3,51.4,27.1,42.1,28.0,14.3,66,35,16,30.18,29.88,9,2,0,0.00
2014-5-3,79.4,58.5,32.1,48.8,32.6,15.7,55,28,13,30.00,29.74,21,3,0,0.00
2014-5-4,82.1,62.5,36.1,49.9,34.5,16.3,49,22,10,29.90,29.67,16,3,0,0.00
2014-5-5,79.3,61.1,38.4,47.6,32.5,15.6,41,21,11,29.85,29.55,14,3,0,0.00
2014-5-6,74.8,59.5,37.8,43.6,31.0,15.5,41,21,11,29.63,29.38,24,4,0,0.00
2014-5-7,68.0,54.6,39.3,36.7,28.5,20.1,55,28,11,29.67,29.34,25,6,0,0.00
2014-5-8,55.7,43.0,31.2,35.1,26.2,16.9,74,53,31,30.01,29.67,23,3,0,0.01
2014-5-9,71.3,50.9,27.8,41.4,31.2,21.5,86,45,16,30.06,29.76,16,3,0,0.00
2014-5-10,75.8,59.0,36.2,46.3,33.7,18.2,52,30,18,29.80,29.40,26,4,0,0.00
2014-5-11,69.5,59.3,45.0,41.0,33.0,23.8,42,27,16,29.59,29.23,24,6,0,0.00
2014-5-12,53.7,43.2,34.4,38.5,29.3,18.6,91,61,34,30.13,29.59,13,2,0,0.28
2014-5-13,49.2,37.6,29.7,34.4,29.1,24.6,92,76,38,30.47,30.13,8,2,0,0.23
2014-5-14,61.2,44.3,26.2,33.1,27.3,22.2,91,53,19,30.54,30.22,12,2,0,0.01
2014-5-15,71.4,53.7,31.8,42.0,32.5,23.5,78,41,18,30.27,29.96,13,2,0,0.00
2014-5-16,78.7,60.5,37.1,48.1,37.6,26.7,74,36,14,30.04,29.72,18,3,0,0.00
2014-5-17,81.8,66.1,46.9,50.5,41.6,32.9,64,32,12,29.81,29.56,18,4,0,0.00
2014-5-18,81.9,65.9,48.4,50.2,39.1,28.1,51,25,9,29.71,29.49,25,4,0,0.00
2014-5-19,84.8,68.7,42.4,51.7,38.2,18.4,38,15,8,29.67,29.48,16,3,0,0.00
2014-5-20,80.5,64.0,40.8,47.4,34.7,17.3,41,18,7,29.76,29.59,19,4,0,0.00
2014-5-21,80.3,63.0,41.0,50.1,36.2,19.9,49,26,15,29.85,29.68,19,4,0,0.00
2014-5-22,80.3,65.2,46.0,50.8,41.8,30.5,58,35,17,29.86,29.62,19,4,0,0.00
2014-5-23,69.8,55.8,47.7,50.2,46.2,40.3,91,73,35,29.91,29.71,16,2,0,0.76
2014-5-24,66.8,52.0,44.5,46.8,43.9,38.9,92,77,39,29.92,29.73,18,2,0,0.25
2014-5-25,63.4,49.8,37.2,43.3,38.9,34.3,95,70,39,29.97,29.85,22,3,0,0.03
2014-5-26,71.0,55.5,42.4,48.3,43.3,38.0,90,66,35,29.97,29.83,14,2,0,0.04
2014-5-27,85.2,66.0,42.8,55.8,46.9,38.2,90,47,17,29.99,29.76,11,2,0,0.00
2014-5-28,86.8,70.5,50.3,56.8,48.6,39.8,74,39,14,29.87,29.64,13,2,0,0.00
2014-5-29,83.6,68.6,52.0,57.0,49.4,41.5,75,47,25,29.83,29.62,18,3,0,0.02
2014-5-30,81.1,67.3,54.8,55.0,50.3,41.3,87,53,26,29.82,29.65,14,2,0,0.00
2014-5-31,85.6,69.4,46.5,57.0,47.7,36.7,75,40,20,29.82,29.57,19,2,0,0.01
2014-6-1,87.4,73.9,55.3,55.1,47.1,29.5,53,25,9,29.63,29.49,18,3,0,0.00
2014-6-2,90.1,68.4,40.7,57.7,41.0,23.2,60,24,9,29.80,29.63,15,2,0,0.00
2014-6-3,92.6,72.3,48.9,61.3,46.4,32.8,63,28,11,29.73,29.49,21,3,0,0.00
2014-6-4,93.1,73.5,48.9,60.3,45.1,30.3,54,21,7,29.65,29.44,18,3,0,0.00
2014-6-5,85.4,61.0,47.3,53.0,33.1,22.1,46,23,10,29.63,29.56,6,2,0,0.00
2014-6-13,82.0,70.6,56.2,57.2,51.6,44.3,77,47,27,29.73,29.49,22,6,0,0.15
2014-6-14,85.2,70.5,50.0,53.7,47.0,31.8,87,35,7,29.57,29.36,26,6,0,0.00
2014-6-15,84.6,67.1,41.1,51.9,38.4,20.2,47,20,7,29.70,29.51,24,6,0,0.00
2014-6-16,87.4,74.6,58.2,54.6,43.8,29.4,25,15,9,29.65,29.45,22,6,0,0.00
2014-6-17,84.3,74.2,57.4,54.4,47.1,34.7,38,25,17,29.59,29.44,28,7,0,0.00
2014-6-18,80.5,68.5,51.0,52.4,44.6,34.5,58,33,19,29.65,29.53,18,3,0,0.00
2014-6-19,85.9,68.0,42.5,55.3,42.7,29.2,68,30,12,29.85,29.65,13,2,0,0.00
2014-6-20,90.6,70.9,44.2,60.0,44.0,22.6,51,25,13,29.90,29.59,17,3,0,0.00
2014-6-21,89.5,73.6,52.5,59.3,48.9,37.2,61,31,13,29.73,29.49,15,3,0,0.00
2014-6-22,90.3,72.9,49.9,59.3,45.7,28.9,53,24,12,29.70,29.48,12,2,0,0.00
2014-6-23,86.6,72.5,48.5,57.0,46.9,29.3,53,29,15,29.76,29.59,24,4,0,0.00
2014-6-24,88.8,73.5,54.1,57.8,48.2,36.9,56,30,13,29.78,29.56,21,4,0,0.00
2014-6-25,88.1,73.3,55.7,59.3,48.3,34.5,58,31,14,29.72,29.50,18,4,0,0.00
2014-6-26,92.5,74.6,52.3,60.7,47.7,35.0,58,25,10,29.66,29.39,19,3,0,0.00
2014-6-27,85.6,76.1,62.0,55.4,47.4,36.1,32,20,16,29.46,29.32,17,3,0,0.00
2014-6-28,89.0,72.7,52.7,57.2,45.1,32.5,51,23,10,29.66,29.44,19,3,0,0.00
2014-6-29,94.8,75.1,50.6,63.8,46.6,25.7,44,21,13,29.76,29.52,20,2,0,0.00
2014-6-30,98.3,78.3,52.0,66.6,50.6,31.3,50,23,11,29.65,29.40,14,3,0,0.00
2014-7-1,88.3,76.4,59.6,61.6,52.5,37.7,52,33,24,29.68,29.48,22,5,0,0.00
2014-7-2,85.3,70.7,57.5,58.7,52.1,45.0,73,48,24,29.84,29.65,20,4,0,0.14
2014-7-3,86.8,70.3,55.3,60.1,52.5,45.9,84,51,25,29.92,29.71,23,2,0,0.00
2014-7-4,88.6,71.8,51.5,61.4,52.1,42.8,81,45,21,29.96,29.75,20,3,0,0.05
2014-7-5,89.2,68.5,54.8,62.5,56.1,50.6,91,65,24,29.92,29.72,13,2,0,0.32
2014-7-6,92.7,73.9,52.4,62.8,55.3,48.1,92,49,16,29.91,29.65,11,2,0,0.00
2014-7-7,93.0,74.0,55.3,64.2,53.3,45.3,74,42,19,29.78,29.56,16,2,0,0.00
2014-7-8,89.8,70.7,60.1,63.1,53.3,45.6,90,52,24,29.92,29.66,22,3,0,0.07
2014-7-9,86.7,70.9,57.1,60.8,55.6,52.9,91,57,26,29.90,29.70,15,2,0,0.00
2014-7-10,90.1,76.1,57.9,63.1,55.9,48.8,76,44,25,29.78,29.52,16,3,0,0.00
2014-7-11,92.0,74.6,58.7,65.0,55.0,46.3,68,45,24,29.73,29.57,24,2,0,0.00
2014-7-14,87.7,76.3,66.0,64.5,57.6,52.4,69,48,33,29.95,29.71,15,3,0,0.13
2014-7-15,79.8,67.5,59.0,61.2,56.2,50.7,92,69,43,29.95,29.66,15,2,0,0.29
2014-7-16,82.0,63.7,57.4,62.0,56.3,51.4,95,79,39,29.88,29.63,16,2,0,0.35
2014-7-17,84.3,65.5,54.8,60.2,54.7,51.2,93,70,28,29.79,29.63,15,2,0,0.20
2014-7-18,88.7,70.5,56.4,62.9,55.3,48.9,90,58,27,29.83,29.63,24,2,0,0.00
2014-7-19,86.7,72.0,57.2,63.4,54.8,48.6,83,52,28,29.78,29.62,13,2,0,0.00
2014-7-20,90.6,72.8,55.9,64.1,55.5,48.4,84,52,23,29.83,29.65,21,2,0,0.04
2014-7-21,91.1,77.2,65.5,63.8,57.2,51.1,77,44,19,29.78,29.65,23,2,0,0.00
2014-7-22,93.4,76.2,61.8,65.4,56.5,49.2,73,45,21,29.90,29.74,16,2,0,0.01
2014-7-23,87.3,71.8,56.0,65.0,57.1,48.9,84,59,30,29.98,29.81,20,3,0,0.08
2014-7-24,89.7,74.9,55.8,63.1,57.1,50.7,91,51,23,29.95,29.68,15,3,0,0.01
2014-7-25,93.1,78.6,61.2,65.4,56.0,46.8,63,37,22,29.76,29.54,16,2,0,0.00
2014-7-26,96.8,80.2,59.4,68.1,58.0,47.0,70,38,18,29.75,29.54,17,2,0,0.00
2014-7-27,85.1,73.8,63.1,61.5,56.4,51.9,89,52,31,29.99,29.72,11,2,0,0.14
2014-7-28,81.3,65.3,57.9,61.5,58.1,54.4,94,80,41,30.01,29.89,16,2,0,0.65
2014-7-29,79.4,66.8,57.7,61.7,57.6,53.1,95,74,44,29.99,29.76,12,2,0,0.03
2014-7-30,84.4,67.9,55.8,61.7,56.5,52.7,93,68,35,29.87,29.73,21,2,0,0.01
2014-7-31,79.4,68.7,58.4,60.3,56.6,52.5,87,66,45,29.89,29.70,17,4,0,0.18
2014-8-2,76.4,70.6,60.2,59.1,55.5,51.5,89,58,42,30.00,29.86,0,0,0,0.00
2014-8-3,80.3,70.3,59.0,58.5,54.7,51.1,82,57,37,29.96,29.79,0,0,0,0.00
2014-8-4,79.9,67.5,57.4,60.3,56.0,52.1,90,68,45,29.89,29.78,0,0,0,0.00
2014-8-5,83.3,71.2,59.0,60.7,56.1,50.2,89,58,31,29.89,29.70,0,0,0,0.00
2014-8-6,89.0,71.9,55.0,60.5,52.7,46.1,81,47,17,29.85,29.66,0,0,0,0.00
2014-8-7,83.8,69.2,57.2,58.2,51.3,44.8,74,50,22,29.77,29.68,18,2,0,0.00
2014-8-8,87.3,69.6,50.3,58.1,51.9,45.6,88,51,17,29.85,29.67,4,0,0,0.00
2014-8-9,88.5,69.4,50.8,58.6,50.4,43.0,81,47,16,29.83,29.67,0,0,0,0.00
2014-8-10,68.8,66.2,64.6,49.4,48.4,47.0,54,50,46,29.97,29.84,0,0,0,0.00
2014-8-11,85.4,68.2,55.5,59.6,51.1,43.8,72,52,27,30.02,29.87,0,0,0,0.00
2014-8-12,85.8,68.4,52.3,60.9,52.8,46.2,84,57,30,30.05,29.81,13,1,0,0.00
2014-8-13,85.2,69.9,55.1,60.0,53.6,46.9,79,55,29,29.93,29.74,17,2,0,0.00
2014-8-14,84.1,72.4,61.6,60.8,56.8,52.9,86,57,33,29.82,29.64,1,0,0,0.00
2014-8-15,84.9,70.9,57.7,60.7,54.6,48.5,82,55,25,29.80,29.66,0,0,0,0.00
2014-8-16,91.1,73.2,56.0,60.9,52.0,44.1,71,41,15,29.86,29.68,0,0,0,0.00
2014-8-17,91.6,70.4,55.4,63.6,50.9,42.5,66,46,22,29.87,29.71,0,0,0,0.00
2014-8-18,89.6,71.6,52.9,62.2,51.3,42.0,72,44,24,29.86,29.60,0,0,0,0.00
2014-8-19,88.4,73.8,58.4,60.3,52.2,44.0,65,40,22,29.69,29.46,0,0,0,0.00
2014-8-20,84.3,72.2,60.3,59.1,52.6,42.9,69,46,26,29.66,29.52,0,0,0,0.00
2014-8-21,87.7,69.9,51.0,58.9,48.4,38.9,70,40,19,29.80,29.65,0,0,0,0.00
2014-8-22,68.0,60.5,54.1,55.4,49.2,40.7,90,68,37,29.84,29.70,0,0,0,0.00
2014-8-23,81.3,64.5,47.4,57.3,50.8,43.5,95,62,29,29.92,29.69,0,0,0,0.00
2014-8-24,87.1,68.7,48.0,60.2,49.6,40.6,83,47,25,29.82,29.63,0,0,0,0.00
2014-8-25,87.6,71.3,51.6,59.9,50.1,39.6,73,41,21,29.80,29.62,0,0,0,0.00
2014-8-26,80.6,63.9,56.6,57.9,52.6,45.9,93,69,36,29.90,29.74,0,0,0,0.00
2014-8-27,77.1,65.1,55.5,58.9,54.1,46.0,96,69,33,29.96,29.84,0,0,0,0.00
2014-8-28,77.1,62.9,47.4,54.1,48.3,43.2,90,59,32,29.92,29.76,0,0,0,0.00
2014-8-29,83.8,67.1,49.5,55.8,48.7,42.3,82,49,22,29.88,29.69,0,0,0,0.00
2014-8-30,85.6,68.5,48.2,58.6,49.4,42.1,86,47,22,29.87,29.62,0,0,0,0.00
2014-8-31,89.7,71.0,49.9,60.2,49.6,40.1,79,41,17,29.74,29.54,0,0,0,0.00
2014-9-1,89.4,71.7,52.2,59.9,48.5,39.4,67,36,17,29.72,29.58,0,0,0,0.00
2014-9-2,90.3,71.4,46.8,60.8,47.2,34.7,68,33,17,29.80,29.57,0,0,0,0.00
2014-9-3,91.8,71.9,49.2,62.1,48.0,36.6,72,34,17,29.69,29.50,0,0,0,0.00
2014-9-4,89.5,70.4,51.5,60.7,48.0,35.0,61,38,17,29.74,29.52,0,0,0,0.00
2014-9-5,81.6,69.5,59.9,57.8,51.9,47.4,72,51,31,29.88,29.66,0,0,0,0.00
2014-9-6,80.2,66.1,51.2,57.5,52.0,45.2,85,61,31,29.98,29.80,0,0,0,0.00
2014-9-7,85.8,70.4,58.8,58.1,52.3,45.7,77,50,22,29.95,29.67,0,0,0,0.00
2014-9-8,84.2,70.4,53.4,59.4,51.8,43.3,75,48,27,29.80,29.59,0,0,0,0.00
2014-9-9,83.7,71.4,64.5,58.5,55.3,49.8,74,55,29,29.65,29.47,0,0,0,0.00
2014-9-10,82.1,70.1,60.8,54.7,49.5,41.4,62,43,20,29.74,29.62,0,0,0,0.00
2014-9-11,84.8,67.1,50.0,57.8,47.5,37.9,69,46,19,29.87,29.63,0,0,0,0.00
2014-9-12,75.3,60.9,48.3,54.4,46.8,39.8,78,61,40,30.02,29.76,0,0,0,0.00
2014-9-13,78.9,62.6,49.2,54.7,45.9,38.8,73,54,31,30.08,29.83,0,0,0,0.00
2014-9-14,84.8,69.0,50.3,57.1,49.8,41.4,76,47,21,29.94,29.69,0,0,0,0.00
2014-9-15,88.8,67.8,52.7,61.1,50.6,44.0,78,52,22,29.92,29.74,0,0,0,0.00
2014-9-16,79.7,66.6,51.5,57.6,50.9,43.6,80,56,36,29.98,29.77,0,0,0,0.00
2014-9-17,71.7,63.6,54.9,54.7,50.2,46.1,78,63,50,29.83,29.69,0,0,0,0.00
2014-9-18,86.6,66.2,43.0,57.3,48.3,37.6,88,50,15,29.84,29.60,0,0,0,0.00
2014-9-19,87.1,69.4,51.8,59.3,52.3,45.0,83,53,22,29.74,29.54,0,0,0,0.00
2014-9-20,90.8,65.9,49.9,61.2,50.0,42.9,84,56,17,29.82,29.67,0,0,0,0.00
2014-9-22,61.3,60.7,60.0,56.0,55.7,55.3,88,86,84,29.88,29.87,3,0,0,0.05
2014-9-23,82.5,67.2,55.3,58.2,53.3,42.1,93,61,24,29.92,29.75,9,1,0,0.01
2014-9-24,87.8,66.7,44.9,58.5,48.6,39.4,88,50,18,29.98,29.79,15,2,0,0.00
2014-9-25,87.3,69.3,54.1,59.9,50.9,44.8,76,49,23,29.94,29.70,8,0,0,0.00
2014-9-26,85.6,67.3,48.2,59.2,49.8,41.2,82,51,26,29.87,29.63,0,0,0,0.00
2014-9-27,79.7,67.1,51.7,56.4,50.5,44.1,81,54,35,29.74,29.54,0,0,0,0.00
2014-9-28,76.3,63.9,47.5,54.3,47.7,39.3,79,55,37,29.80,29.66,0,0,0,0.00
2014-9-29,73.0,60.2,46.6,52.8,47.5,35.3,86,65,35,29.78,29.52,0,0,0,0.00
2014-9-30,70.4,53.2,35.7,44.9,38.0,32.1,94,58,27,29.85,29.70,0,0,0,0.00
2014-10-1,73.5,54.7,34.4,47.6,37.2,28.6,88,52,24,29.81,29.63,0,0,0,0.00
2014-10-2,68.8,55.3,41.3,40.0,34.1,23.7,80,41,18,30.04,29.78,0,0,0,0.00
2014-10-3,74.8,55.3,32.6,45.6,32.3,19.9,67,36,19,30.21,30.01,0,0,0,0.00
2014-10-4,78.7,58.4,34.9,49.2,35.6,23.5,69,37,18,30.09,29.77,0,0,0,0.00
2014-10-5,78.8,58.8,35.9,48.9,35.9,24.0,68,36,17,29.90,29.70,0,0,0,0.00
2014-10-6,81.7,59.0,34.8,50.5,35.3,22.2,66,34,13,29.95,29.73,0,0,0,0.00
2014-10-7,79.4,57.7,36.7,48.7,33.4,20.6,57,33,12,29.94,29.76,0,0,0,0.00
2014-10-8,73.3,56.5,38.3,45.0,34.4,21.5,60,39,20,29.93,29.79,0,0,0,0.00
2014-10-9,68.9,54.9,49.8,53.4,48.2,37.9,93,81,51,29.82,29.65,0,0,0,0.00
2014-10-10,60.1,53.5,48.5,48.4,45.9,43.4,95,79,57,30.01,29.80,0,0,0,0.00
2014-10-11,71.0,57.0,47.4,47.6,44.6,40.0,84,66,33,30.03,29.77,0,0,0,0.00
2014-10-12,65.1,49.6,41.1,42.9,37.3,30.9,92,66,30,29.90,29.46,0,0,0,0.00
2014-10-13,64.5,47.4,31.4,36.4,30.9,25.3,92,54,21,30.13,29.90,0,0,0,0.00
2014-10-14,75.5,49.8,30.3,46.0,30.9,22.1,78,47,15,30.23,30.01,0,0,0,0.00
2014-10-15,76.7,51.7,28.2,47.2,31.7,21.7,85,44,17,30.18,29.90,0,0,0,0.00
2014-10-16,79.0,53.6,32.3,49.4,32.9,22.1,76,43,14,30.04,29.81,0,0,0,0.00
2014-10-17,74.8,53.8,33.2,46.4,33.7,23.6,77,44,21,29.99,29.85,0,0,0,0.00
2014-10-18,67.7,54.3,46.2,48.1,41.3,32.0,92,64,42,29.98,29.85,0,0,0,0.00
2014-10-19,75.6,54.0,38.8,50.6,42.2,34.8,93,67,28,30.05,29.84,0,0,0,0.00
2014-10-20,74.2,55.9,39.7,49.0,42.5,36.5,94,63,29,30.02,29.84,0,0,0,0.00
2014-10-21,63.6,51.7,41.1,48.1,41.6,36.6,90,72,54,29.95,29.81,0,0,0,0.00
2014-10-22,73.5,55.6,41.8,48.1,41.9,34.1,93,62,27,30.02,29.87,9,2,0,0.00
2014-10-23,74.8,53.6,34.8,48.0,36.7,27.9,84,53,24,30.12,29.94,3,0,0,0.00
2014-10-24,83.6,54.9,33.0,52.6,35.7,26.3,85,47,14,30.18,29.98,0,0,0,0.00
2014-10-25,80.0,54.4,30.0,50.1,33.4,21.1,77,41,17,30.17,29.91,0,0,0,0.00
2014-10-26,73.6,55.2,35.9,48.8,36.0,24.1,68,47,31,29.98,29.69,0,0,0,0.00
2014-10-27,70.6,56.8,40.3,42.9,35.5,20.1,64,41,23,29.85,29.61,0,0,0,0.00
2014-10-28,68.8,48.2,34.4,39.6,26.3,17.7,59,39,18,30.12,29.85,0,0,0,0.00
2014-10-29,73.3,47.6,24.9,42.2,23.9,11.7,65,34,13,30.24,30.03,0,0,0,0.00
2014-10-30,72.6,50.4,28.0,42.4,25.7,10.9,57,32,15,30.27,30.08,0,0,0,0.00
2014-10-31,64.8,48.7,29.7,39.2,27.9,15.7,62,42,29,30.28,30.03,0,0,0,0.00
2014-11-1,67.6,54.5,38.9,46.4,38.3,30.6,80,55,40,30.09,29.76,0,0,0,0.00
2014-11-2,54.5,47.1,40.4,46.4,39.1,32.4,92,78,59,29.84,29.72,0,0,0,0.00
2014-11-3,57.3,45.1,31.7,43.2,31.1,25.4,92,61,29,30.05,29.81,0,0,0,0.00
2014-11-4,59.0,41.2,28.7,32.7,27.6,23.3,90,62,27,30.29,30.04,0,0,0,0.00
2014-11-5,64.0,42.2,26.7,34.8,25.4,19.8,84,53,18,30.42,30.19,0,0,0,0.00
2014-11-6,65.6,44.1,23.6,37.8,26.2,17.8,87,50,21,30.51,30.28,0,0,0,0.00
2014-11-7,70.3,44.5,24.6,40.1,26.8,18.7,92,51,15,30.30,29.99,0,0,0,0.00
2014-11-8,65.8,45.2,29.7,38.4,27.2,20.7,79,50,24,30.33,30.14,0,0,0,0.00
2014-11-9,68.6,43.0,24.4,40.5,26.1,17.3,86,53,21,30.22,29.81,0,0,0,0.00
2014-11-10,69.4,49.1,26.2,40.6,28.7,17.9,79,43,19,29.81,29.51,0,0,0,0.00
2014-11-11,61.0,48.6,34.9,34.7,26.1,16.6,56,37,27,29.80,29.65,0,0,0,0.00
2014-11-12,42.5,31.6,21.8,22.7,15.5,9.6,72,55,40,30.26,29.80,0,0,0,0.00
2014-11-13,40.2,27.3,17.6,20.3,12.5,5.1,67,59,44,30.42,30.19,0,0,0,0.00
2014-11-14,53.8,41.6,31.3,37.4,28.0,18.7,89,62,42,30.19,29.83,0,0,0,0.00
2014-11-15,54.6,43.9,36.7,36.9,31.5,23.8,92,66,33,29.90,29.67,0,0,0,0.00
2014-11-16,42.7,29.6,19.7,34.5,24.7,14.9,92,86,72,30.32,29.68,4,0,0,0.12
2014-11-17,41.1,23.9,17.0,22.4,15.3,8.7,92,76,47,30.52,30.32,10,1,0,0.00
2014-11-18,47.6,26.6,11.2,23.4,14.5,4.8,86,66,25,30.57,30.38,9,1,0,0.00
2014-11-19,50.7,28.0,17.7,25.4,16.9,10.1,90,69,29,30.45,30.25,5,1,0,0.00
2014-11-20,57.4,34.0,20.5,29.4,19.8,13.9,85,61,21,30.29,30.06,6,1,0,0.00
2014-11-21,50.9,32.7,20.1,30.2,22.1,15.4,92,70,40,30.17,30.02,7,1,0,0.00
2014-11-22,57.5,36.0,18.6,31.9,22.4,14.2,92,62,28,30.19,29.79,13,1,0,0.01
2014-11-23,43.1,33.2,21.0,27.3,23.8,14.9,88,74,45,30.10,29.67,17,2,0,0.00
2014-11-24,39.5,22.4,11.0,18.0,11.4,2.4,92,70,37,30.56,30.10,13,1,0,0.15
2014-11-25,46.4,26.3,12.0,20.5,11.3,4.2,86,58,28,30.63,30.38,15,2,0,0.01
2014-11-26,56.2,34.9,21.7,32.3,20.3,9.8,84,59,33,30.49,30.34,13,2,0,0.00
2014-11-27,63.1,37.1,20.2,36.4,24.5,15.9,91,65,25,30.57,30.31,10,1,0,0.00
2014-11-28,65.2,36.0,20.4,38.2,23.6,16.1,92,66,24,30.34,30.06,8,1,0,0.00
2014-11-29,63.0,37.6,19.3,34.5,21.9,14.7,91,56,19,30.11,29.90,11,2,0,0.01
2014-11-30,58.1,37.8,22.8,31.4,21.5,14.8,82,55,24,30.19,29.97,9,2,0,0.00
2014-12-1,56.7,34.9,19.3,30.6,21.3,14.3,90,62,27,30.37,30.18,9,1,0,0.00
2014-12-2,53.3,35.4,19.7,28.9,21.7,14.3,89,62,30,30.32,30.10,8,1,0,0.00
2014-12-3,57.1,40.9,29.1,39.8,28.8,20.6,92,66,31,30.20,30.05,9,1,0,0.00
2014-12-4,47.6,38.6,30.5,41.0,34.5,27.3,94,89,70,30.11,29.89,7,1,0,0.53
2014-12-5,55.9,39.2,32.2,41.5,33.6,29.0,96,85,49,30.37,30.07,6,1,0,0.01
2014-12-6,51.0,39.6,28.3,36.9,32.0,25.4,95,79,59,30.49,30.31,10,1,0,0.00
2014-12-7,60.9,42.3,29.5,39.1,33.2,24.4,93,75,36,30.33,30.17,9,1,0,0.00
2014-12-8,57.3,35.7,23.1,34.3,25.9,19.1,93,73,35,30.47,30.32,6,1,0,0.01
2014-12-9,60.2,34.8,23.3,34.2,24.2,19.0,90,70,28,30.42,30.23,9,1,0,0.00
2014-12-10,60.7,34.5,21.0,33.0,21.3,15.3,89,63,22,30.33,30.14,11,2,0,0.00
2014-12-11,61.6,36.2,19.1,35.3,22.4,14.3,96,62,24,30.33,30.14,10,1,0,0.00
2014-12-12,59.0,36.8,21.5,36.7,25.6,17.4,90,69,36,30.32,30.13,9,1,0,0.00
2014-12-13,57.9,38.3,27.2,37.7,29.1,22.8,92,74,38,30.17,29.76,22,2,0,0.23
2014-12-14,36.6,34.1,32.0,30.3,25.6,20.0,93,76,63,30.07,29.73,17,4,0,0.16
2014-12-15,45.1,31.0,20.9,21.9,19.0,15.1,92,66,32,30.34,30.06,11,2,0,0.02
2014-12-16,39.9,29.9,21.3,24.2,20.0,15.9,92,72,49,30.38,30.20,8,1,0,0.00
2014-12-17,34.8,29.6,23.1,32.4,25.8,19.1,96,89,85,30.21,30.03,10,1,0,0.14
2014-12-18,40.5,32.2,26.5,31.7,26.7,22.1,94,85,58,30.22,30.09,5,0,0,0.05
2014-12-19,44.3,27.7,16.4,23.9,18.5,12.1,91,75,43,30.36,30.20,8,1,0,0.00
2014-12-20,49.4,28.6,14.3,26.0,17.3,9.2,88,69,34,30.36,30.16,9,1,0,0.01
2014-12-21,47.4,37.8,28.1,29.6,25.4,20.7,83,65,49,30.20,29.81,15,3,0,0.00
2014-12-22,51.5,40.3,26.0,32.3,29.0,20.2,91,69,42,29.82,29.49,34,4,0,0.00
2014-12-23,35.2,23.9,12.8,20.4,12.8,5.0,88,69,37,30.36,29.78,8,0,0,0.13
2014-12-24,41.4,23.2,9.7,15.4,8.6,1.2,80,59,27,30.40,30.00,12,2,0,0.00
2014-12-25,45.1,29.7,16.7,28.4,18.2,9.8,90,68,31,30.00,29.70,12,1,0,0.00
2014-12-26,32.5,25.0,12.6,26.8,18.1,6.3,91,81,50,30.20,29.73,22,3,0,0.06
2014-12-27,34.4,15.7,0.0,16.1,5.5,-7.7,93,72,42,30.57,30.20,9,2,0,0.10
2014-12-28,38.1,16.4,0.5,13.8,3.9,-6.3,85,65,30,30.55,30.28,8,2,0,0.00
2014-12-29,35.2,17.8,4.4,14.7,6.0,-3.3,82,67,42,30.37,30.18,7,1,0,0.00
2014-12-30,26.8,16.9,7.1,10.1,5.9,-0.1,84,69,53,30.52,30.33,22,3,0,0.00
2014-12-31,32.4,20.9,13.9,14.1,8.0,3.9,76,64,48,30.53,30.23,14,3,0,0.00
2015-1-1,36.2,22.5,11.6,17.5,10.4,4.8,83,67,42,30.26,30.07,15,3,0,0.00
2015-1-2,33.9,21.2,7.8,14.1,7.6,0.0,83,62,44,30.36,30.09,18,4,0,0.00